Middelharnis, Netherlands
Current Conditions -  °F | °C
As of 1:25 PM on Friday 24 Oct 2014 (Local Time) from EHRD Reporting Station
Heavy Rain Heavy Rain  
Wind Chill: 54°   Ceiling: 600
Heat Index: 54°   Visibility: 1.7mi
Dew Point: 54°   Wind: 13mph
Humidity: 100%   Direction: 190°S
Pressure: 30.03"   Gusts: NA
Location:  51.76°N, 4.17°E
Report Text: EHRD 241125Z AUTO 19011KT 150V220 2800 +DZRA SCT005 BKN006OVC007 12/12 Q1017 BECMG 6000 BKN012
Loading
Personal Weather Stations






























Interactive Weather Map
Tropical Storm Tracking
New forecast layout! Learn more

10-Day Weather Forecast

Advertisements
Track Severe Weather on mobile